createdAt,value
2018-09-29T14:20:01.193Z,39.5
2018-09-29T14:21:08.418Z,38.9
2018-09-29T14:23:00.005Z,38.1
2018-09-29T14:23:54.235Z,39.1
2018-09-29T14:25:00.330Z,40.2
2018-09-29T14:25:56.452Z,39.1
2018-09-29T14:26:53.235Z,40.3
2018-09-29T14:27:51.889Z,40.4
2018-09-29T14:28:53.487Z,43.2
2018-09-29T14:29:56.634Z,43
2018-09-29T14:30:56.840Z,40.1
2018-09-29T14:31:58.808Z,40.1
2018-09-29T14:32:56.879Z,39.7
2018-09-29T14:33:55.282Z,38.6
2018-09-29T14:34:55.288Z,37.9
2018-09-29T14:35:53.944Z,37.5
2018-09-29T14:36:54.560Z,37.5
2018-09-29T14:37:51.875Z,37.4
2018-09-29T14:40:43.693Z,37.8
2018-09-29T14:41:42.062Z,37.4
2018-09-29T14:42:45.942Z,36.5
2018-09-29T14:44:53.590Z,37
2018-09-29T14:46:52.562Z,37
2018-09-29T14:48:04.230Z,36.9
2018-09-29T14:49:04.560Z,36.6
2018-09-29T14:50:02.651Z,37.1
2018-09-29T14:51:07.760Z,37.3
2018-09-29T14:52:06.691Z,36.6
2018-09-29T14:54:12.155Z,36.8
2018-09-29T14:55:12.482Z,37.2
2018-09-29T14:56:08.095Z,36.7
2018-09-29T14:57:10.564Z,36.8
2018-09-29T14:59:12.264Z,40.4
2018-09-29T15:00:15.267Z,36.9
2018-09-29T15:01:22.871Z,36.6
2018-09-29T15:02:17.707Z,36.8
2018-09-29T15:03:26.234Z,36.6
2018-09-29T15:04:30.310Z,36.8
2018-09-29T15:05:31.065Z,36.7
2018-09-29T15:06:34.250Z,37
2018-09-29T15:07:35.248Z,37.1
2018-09-29T15:08:35.973Z,37.2
2018-09-29T15:09:34.225Z,37
2018-09-29T15:10:36.200Z,37.1
2018-09-29T15:13:12.365Z,37.2
2018-09-29T15:14:12.346Z,37.1
2018-09-29T15:15:17.432Z,37.4
2018-09-29T16:34:10.709Z,40.7
2018-09-29T16:35:13.575Z,41.1
2018-09-29T16:36:09.563Z,41.3
2018-09-29T16:37:08.545Z,41.6
2018-09-29T16:38:07.854Z,42.2
2018-09-29T16:39:12.199Z,42.4
2018-09-29T16:40:16.031Z,42
2018-09-29T16:41:16.535Z,41.7
2018-09-29T16:42:16.577Z,41.9
2018-09-29T16:43:15.909Z,41.7
2018-09-29T16:44:17.736Z,41.7
2018-09-29T16:45:16.931Z,41.6
2018-09-29T16:46:17.047Z,41.5
2018-09-29T16:47:18.294Z,41.5
2018-09-29T16:48:19.188Z,41.5
2018-09-29T16:49:21.868Z,41.5
2018-09-29T16:50:21.742Z,41.5
2018-09-29T16:51:32.254Z,41.4
2018-09-29T16:52:33.297Z,41.6
2018-09-29T16:53:33.344Z,41.4
2018-09-29T16:54:32.542Z,41.5
2018-09-29T16:55:31.451Z,41.5
2018-09-29T16:56:35.303Z,41.5
2018-09-29T16:57:40.187Z,41.5
2018-09-29T16:58:40.879Z,41.6
2018-09-29T16:59:43.444Z,41.5
2018-09-29T17:00:45.863Z,41.5
2018-09-29T17:01:47.933Z,41.5
2018-09-29T17:02:46.948Z,41.6
2018-09-29T17:03:46.629Z,41.6
2018-09-29T17:04:48.145Z,41.7
2018-09-29T17:05:49.467Z,41.7
2018-09-29T17:06:48.694Z,41.8
2018-09-29T17:07:48.186Z,41.7
2018-09-29T17:08:50.832Z,41.8
2018-09-29T17:09:59.314Z,42.4
2018-09-29T17:10:56.237Z,42.6
2018-09-29T17:12:03.148Z,42.2
2018-09-29T17:13:04.178Z,42.1
2018-09-29T17:14:03.999Z,42.5
2018-09-29T17:15:04.303Z,42.4
2018-09-29T17:16:03.704Z,42.8
2018-09-29T17:17:05.814Z,42.8
2018-09-29T17:18:03.712Z,42.4
2018-09-29T17:19:04.706Z,42.1
2018-09-29T17:20:04.427Z,42.1
2018-09-29T17:21:04.111Z,42.3
2018-09-29T17:22:05.102Z,42.7
2018-09-29T17:23:11.395Z,42.8
2018-09-29T17:24:13.467Z,42.7
2018-09-29T17:25:12.802Z,42.7
2018-09-29T17:26:21.334Z,43.1
2018-09-29T17:27:18.002Z,42.7
2018-09-29T17:28:16.938Z,42.9
2018-09-29T17:29:16.072Z,42.9
2018-09-29T17:30:16.558Z,42.8
2018-09-29T17:31:17.333Z,43
2018-09-29T17:32:19.608Z,43
2018-09-29T17:33:25.364Z,43.1
2018-09-29T21:50:54.495Z,47
2018-09-29T21:51:43.132Z,47.7
2018-09-29T21:52:42.200Z,48
2018-09-29T21:53:40.236Z,47.9
2018-09-29T21:54:38.138Z,48.2
2018-09-29T21:55:37.017Z,48
2018-09-29T21:56:35.095Z,48
2018-09-29T21:57:35.651Z,47.8
2018-09-29T21:58:30.101Z,47.8
2018-09-29T21:59:35.118Z,47.5
2018-09-29T22:00:33.789Z,47.7
2018-09-29T22:01:33.048Z,47.6
2018-09-29T22:02:40.686Z,47.5
2018-09-29T22:03:44.799Z,47.5
2018-09-29T22:04:42.037Z,47.6
2018-09-29T22:05:39.689Z,47.8
2018-09-29T22:06:40.503Z,47.7
2018-09-29T22:07:40.696Z,47.6
2018-09-29T22:08:38.036Z,47.6
2018-09-29T22:09:38.311Z,47.6
2018-09-29T22:10:47.431Z,47.6
2018-09-29T22:11:46.989Z,47.6
2018-09-29T22:12:48.981Z,47.6
2018-09-29T22:13:45.955Z,47.6
2018-09-29T22:14:44.915Z,47.7
2018-09-29T22:15:43.134Z,47.7
2018-09-29T22:16:44.241Z,47.7
2018-09-29T22:17:43.391Z,47.6
2018-09-29T22:18:40.139Z,47.7
2018-09-29T22:19:39.935Z,47.7
2018-09-29T22:20:44.208Z,47.8
2018-09-29T22:21:44.176Z,47.7
2018-09-29T22:22:43.035Z,47.7
2018-09-29T22:23:44.381Z,47.7
2018-09-29T22:24:41.777Z,47.7
2018-09-29T22:25:47.288Z,47.8
2018-09-29T22:26:47.590Z,47.8
2018-09-29T22:27:47.691Z,47.8
2018-09-29T22:28:49.772Z,47.7
2018-09-29T22:29:50.253Z,47.8
2018-09-29T22:30:48.030Z,47.8
2018-09-29T22:31:49.631Z,47.8
2018-09-29T22:32:48.383Z,47.9
2018-09-29T22:33:48.338Z,47.9
2018-09-29T22:34:46.914Z,48
2018-09-29T22:35:44.627Z,48.1
2018-09-29T22:36:41.298Z,48
2018-09-29T22:37:38.960Z,48
2018-09-29T22:38:38.321Z,48.1
2018-09-29T22:39:36.939Z,48.1
2018-09-29T22:40:38.513Z,48.1
2018-09-29T22:41:35.504Z,48.2
2018-09-29T22:42:32.396Z,48.2
2018-09-29T22:43:30.522Z,48.2
2018-09-29T22:44:27.524Z,48.3
2018-09-29T22:45:37.116Z,48.3
2018-09-29T22:46:36.556Z,48.3
2018-09-29T22:47:35.171Z,48.3
2018-09-29T22:50:35.492Z,48.4
2018-09-29T22:51:22.812Z,48.5
2018-09-29T22:52:19.389Z,48.5
2018-09-29T22:53:23.158Z,48.5
2018-09-29T22:54:20.543Z,48.6
2018-09-29T22:55:18.639Z,48.6
2018-09-29T22:56:18.125Z,48.6
2018-09-29T22:57:18.848Z,48.6
2018-09-29T22:58:16.167Z,48.6
2018-09-29T22:59:13.696Z,48.7
2018-09-29T23:00:16.052Z,48.6
2018-09-29T23:01:23.797Z,48.6
2018-09-29T23:02:20.789Z,48.7
2018-09-29T23:03:18.592Z,48.8
2018-09-29T23:04:16.815Z,48.7
2018-09-29T23:05:16.997Z,48.9
2018-09-29T23:06:16.152Z,48.2
2018-09-29T23:07:13.438Z,48.9
2018-09-29T23:08:09.694Z,48.9
2018-09-29T23:09:08.987Z,48.7
2018-09-29T23:10:06.530Z,48.7
2018-09-29T23:11:08.587Z,48.9
2018-09-29T23:12:07.838Z,49.2
2018-09-29T23:13:04.046Z,48.8
2018-09-29T23:14:00.260Z,48.9
2018-09-29T23:14:59.446Z,48.8
2018-09-29T23:15:56.259Z,49
2018-09-29T23:16:54.119Z,48.9
2018-09-29T23:17:53.482Z,48.7
2018-09-29T23:18:59.535Z,49
2018-09-29T23:19:55.920Z,49
2018-09-29T23:20:57.537Z,49.2
2018-09-29T23:21:54.710Z,49.1
2018-09-29T23:22:52.863Z,49.1
2018-09-29T23:23:50.561Z,49.1
2018-09-29T23:24:48.266Z,49.1
2018-09-29T23:25:45.724Z,49.2
2018-09-29T23:26:43.237Z,49.2
2018-09-29T23:27:42.122Z,49.2
2018-09-29T23:28:44.409Z,49.2
2018-09-29T23:29:42.977Z,49.6
2018-09-29T23:30:42.381Z,49.2
2018-09-29T23:31:38.695Z,49.2
2018-09-29T23:32:40.946Z,49.3
2018-09-29T23:33:39.716Z,49.3
2018-09-29T23:34:38.330Z,49.4
2018-09-29T23:35:36.610Z,49.2
2018-09-29T23:36:34.044Z,49.3
2018-09-29T23:37:31.444Z,49.3
2018-09-29T23:38:29.007Z,49.4
2018-09-29T23:39:29.272Z,49.5
2018-09-29T23:40:25.961Z,49.5
2018-09-29T23:41:23.571Z,49.5
2018-09-29T23:42:20.796Z,49.5
2018-09-29T23:43:18.894Z,49.5
2018-09-29T23:44:25.282Z,49.6
2018-09-29T23:45:22.350Z,49.5
2018-09-29T23:46:26.009Z,49.6
2018-09-29T23:49:10.125Z,49.6
2018-09-29T23:50:04.149Z,49.6
2018-09-29T23:51:08.694Z,49.6
2018-09-29T23:52:12.773Z,49.4
2018-09-29T23:53:15.407Z,49.6
2018-09-29T23:54:15.376Z,49.7
2018-09-29T23:55:12.224Z,49.7
2018-09-29T23:56:09.777Z,49.7
2018-09-29T23:57:09.382Z,49.6
2018-09-29T23:58:12.178Z,49.8
2018-09-29T23:59:09.052Z,49.8
